Tiempo atmosférico en la estación meteorológica de Vallehermoso, Dama, Santa Cruz de Tenerife (190 m.)



Fecha
DESCASC
Temp. máxima en grados centígrados (hora)
DESCASC
Temp. mínima en grados centígrados (hora)
DESCASC
Temp. media en grados centígrados
DESCASC
Racha de viento máxima en m/sg (hora)
DESCASC
Velocidad máxima media en intervalos de 10 minutos(hora)
DESCASC
Precipitaciones diarias en mm
DESCASC
Precipitaciones de 00:00 a 06:00 en mm
DESCASC
Precipitaciones de 06:00 a 12:00 en mm
DESCASC
Precipitaciones de 12:00 a 18:00 en mm
DESCASC
Precipitaciones de 18:00 a 24:00 en mm
DESCASC
18-04-2019 23.4 (15:20) 14.3 (06:10) 18.8 15 (18:20) 5.28 (19:10) 0 0 0 0 0
17-04-2019 26.4 (15:50) 16.7 (07:20) 21.6 11.39 (03:10) 6.67 (03:10) 0 0 0 0 0
16-04-2019 25.5 (15:20) 13.6 (00:00) 19.6 11.94 (22:00) 7.78 (22:00) 0 0 0 0 0
15-04-2019 21.6 (12:10) 14 (00:00) 17.8 5 (17:40) 3.33 (12:20) 0 0 0 0 0
14-04-2019 25.1 (15:10) 13.3 (00:00) 19.2 13.89 (16:40) 8.61 (16:40) 0 0 0 0 0
13-04-2019 22.5 (17:00) 13.5 (00:00) 18 5.28 (15:30) 3.33 (15:30) 0 0 0 0 0
12-04-2019 22.8 (16:10) 13.7 (00:00) 18.2 9.17 (00:30) 3.61 (17:20) 0 0 0 0 0
11-04-2019 23.6 (14:00) 12.7 (00:00) 18.2 5.83 (19:20) 3.61 (19:20) 0 0 0 0 0
10-04-2019 22.3 (15:50) 14.5 (00:00) 18.4 6.67 (17:10) 3.89 (16:50) 0 0 0 0 0
09-04-2019 24 (13:30) 13.4 (00:00) 18.7 4.72 (17:20) 2.78 (12:40) 0 0 0 0 0
08-04-2019 23.4 (14:40) 12.5 (00:00) 17.9 5 (18:40) 3.33 (18:50) 0 0 0 0 0
07-04-2019 24.4 (15:20) 12.4 (00:00) 18.4 8.89 (16:50) 4.72 (16:50) 0 0 0 0 0
06-04-2019 22.6 (14:00) 14.4 (00:00) 18.5 13.33 (01:20) 5.83 (01:20) 0 0 0 0 0
05-04-2019 23.8 (15:20) 14 (00:00) 18.9 11.94 (22:30) 6.67 (02:30) 0 0 0 0 0
04-04-2019 23.3 (17:10) 13 (00:00) 18.1 12.5 (13:20) 6.94 (15:30) 0.6 0.4 0.2 0 0
03-04-2019 22.1 (13:10) 12.3 (06:10) 17.2 12.22 (17:50) 7.5 (17:50) 0 0 0 0 0
02-04-2019 20.8 (15:50) 14.4 (00:00) 17.6 6.39 (19:20) 3.61 (04:50) 2 0 2 0 0
01-04-2019 21.7 (15:40) 13.1 (00:00) 17.4 10 (15:00) 5 (16:00) 9.2 0 0 0.6 8.6
31-03-2019 26.1 (15:00) 13.6 (00:00) 19.9 10.56 (18:10) 5.56 (18:30) 0 0 0 0 0
30-03-2019 23.6 (15:30) 13.4 (00:00) 18.5 11.67 (16:30) 7.5 (16:20) 0 0 0 0 0
29-03-2019 23.6 (14:30) 13.8 (00:00) 18.7 9.17 (17:00) 4.44 (16:30) 0 0 0 0 0
28-03-2019 20.8 (17:40) 13.9 (00:00) 17.3 5.83 (11:10) 3.33 (11:10) 0.2 0 0 0.2 0
27-03-2019 22.4 (14:40) 13.8 (00:00) 18.1 5.56 (18:30) 3.06 (18:40) 0 0 0 0 0
26-03-2019 22.8 (17:10) 11.8 (00:00) 17.3 10.28 (15:40) 6.11 (15:40) 0 0 0 0 0
25-03-2019 17.6 (15:50) 13.1 (00:00) 15.4 8.61 (11:00) 4.17 (05:40) 16.8 7 9.6 0.2 0
24-03-2019 20.5 (14:00) 14.1 (00:00) 17.3 6.11 (16:20) 3.33 (16:30) 0 0 0 0 0
23-03-2019 23.5 (14:20) 13.6 (00:00) 18.6 5.28 (01:40) 3.33 (14:20) 0 0 0 0 0
22-03-2019 22.8 (14:50) 13.9 (00:00) 18.3 6.39 (06:00) 3.33 (14:40) 0 0 0 0 0
21-03-2019 22.8 (14:40) 13.3 (00:00) 18 7.78 (15:30) 5 (15:20) 0 0 0 0 0

Gráficas

Temp. máximas Temp. mínimas Temp. medias Precipitaciones Rachas de viento máximas Velocidades máximas media en intervalos de 10 minutos

Datos horarios

Fecha y hora oficial Temperatura (ºC) Velocidad del viento (km/h) Dirección del viento Racha (km/h) Dirección de racha Precipitación (mm) Presión (hPa) Tendencia (hPa) Humedad (%)
2019-04-19 23:00:00 16.5 4 Nordeste 13 Sudoeste 0 -- -- 70
2019-04-19 22:00:00 17.1 3 Sudeste 13 Sudeste 0 -- -- 65
2019-04-19 21:00:00 17.8 9 Sur 17 Sudeste 0 -- -- 62
2019-04-19 20:00:00 19 5 Sudeste 17 Sur 0 -- -- 57
2019-04-19 19:00:00 20.1 8 Sur 18 Sur 0 -- -- 58
2019-04-19 18:00:00 21.8 12 Sur 20 Oeste 0 -- -- 50
2019-04-19 17:00:00 23.1 10 Oeste 21 Oeste 0 -- -- 46
2019-04-19 16:00:00 22.4 10 Sudoeste 18 Sudoeste 0 -- -- 50
2019-04-19 15:00:00 22.8 12 Sudoeste 21 Sudoeste 0 -- -- 48
2019-04-19 14:00:00 21.8 10 Sur 22 Sur 0 -- -- 53
2019-04-19 13:00:00 21.5 12 Sur 18 Sur 0 -- -- 52
2019-04-19 12:00:00 21.1 9 Sur 18 Sur 0 -- -- 54
2019-04-19 11:00:00 21.3 5 Oeste 13 Oeste 0 -- -- 54
2019-04-19 10:00:00 19.5 4 Sudoeste 10 Sudoeste 0 -- -- 60
2019-04-19 09:00:00 15.8 0 Calma 9 Este 0 -- -- 79
2019-04-19 08:00:00 14.3 6 Sudeste 11 Este 0 -- -- 80
2019-04-19 07:00:00 14.2 5 Este 9 Este 0 -- -- 81
2019-04-19 06:00:00 14.2 5 Este 9 Este 0 -- -- 80
2019-04-19 05:00:00 14.5 6 Este 11 Sudeste 0 -- -- 78
2019-04-19 04:00:00 14.5 6 Este 9 Este 0 -- -- 76
2019-04-19 03:00:00 14.5 2 Este 8 Sudeste 0 -- -- 77
2019-04-19 02:00:00 15.3 2 Sudeste 10 Sudeste 0 -- -- 72
2019-04-19 01:00:00 15.7 3 Sudoeste 11 Este 0 -- -- 70
2019-04-19 00:00:00 15.7 3 Nordeste 9 Nordeste 0 -- -- 69
2019-04-18 23:00:00 16.3 3 Este 9 Sudeste 0 -- -- 68
2019-04-18 22:00:00 17 4 Nordeste 8 Noroeste 0 -- -- 63
2019-04-18 21:00:00 18.2 4 Este 24 Nordeste 0 -- -- 57
2019-04-18 20:00:00 19.1 17 Nordeste 34 Nordeste 0 -- -- 52
2019-04-18 19:00:00 20.4 18 Nordeste 54 Nordeste 0 -- -- 51
2019-04-18 18:00:00 21.7 9 Sur 21 Sudeste 0 -- -- 53
2019-04-18 17:00:00 22.2 10 Sur 22 Sudeste 0 -- -- 52
2019-04-18 16:00:00 22.9 10 Sur 19 Sur 0 -- -- 50
2019-04-18 15:00:00 22.8 10 Sudoeste 18 Sur 0 -- -- 49
2019-04-18 14:00:00 22 13 Sur 22 Sur 0 -- -- 51
2019-04-18 13:00:00 22 8 Sudoeste 14 Sur 0 -- -- 53
2019-04-18 12:00:00 21.7 8 Sudoeste 14 Sur 0 -- -- 54
2019-04-18 11:00:00 21 7 Sudoeste 10 Oeste 0 -- -- 55
2019-04-18 10:00:00 19.7 4 Sudoeste 11 Oeste 0 -- -- 58
2019-04-18 09:00:00 16.8 0 Calma 13 Sudeste 0 -- -- 69
2019-04-18 08:00:00 16.2 6 Sudeste 24 Nordeste 0 -- -- 63
2019-04-18 07:00:00 16.4 15 Este 30 Este 0 -- -- 60
2019-04-18 06:00:00 14.4 3 Sur 8 Este 0 -- -- 71
2019-04-18 05:00:00 15.6 4 Este 19 Nordeste 0 -- -- 70
2019-04-18 04:00:00 16.3 9 Este 18 Este 0 -- -- 62
2019-04-18 03:00:00 16.8 10 Este 21 Nordeste 0 -- -- 59
2019-04-18 02:00:00 17.1 12 Nordeste 27 Norte 0 -- -- 61
2019-04-18 01:00:00 17.6 9 Este 35 Nordeste 0 -- -- 57
2019-04-18 00:00:00 17.9 16 Nordeste 36 Este 0 -- -- 57
2019-04-17 23:00:00 18 17 Nordeste 32 Nordeste 0 -- -- 60
2019-04-17 22:00:00 18.1 19 Norte 32 Norte 0 -- -- 59
2019-04-17 21:00:00 18.6 17 Norte 34 Norte 0 -- -- 60
2019-04-17 20:00:00 20 14 Nordeste 26 Este 0 -- -- 55
2019-04-17 19:00:00 20.8 8 Sur 21 Sur 0 -- -- 63
2019-04-17 18:00:00 21.7 9 Sudeste 28 Sur 0 -- -- 68
2019-04-17 17:00:00 24.8 11 Sur 23 Oeste 0 -- -- 52
2019-04-17 16:00:00 26.3 14 Noroeste 27 Noroeste 0 -- -- 44
2019-04-17 15:00:00 23.3 8 Noroeste 20 Noroeste 0 -- -- 57
2019-04-17 14:00:00 22.6 11 Sur 17 Sur 0 -- -- 64
2019-04-17 13:00:00 22.5 9 Sur 15 Sur 0 -- -- 65
2019-04-17 12:00:00 22.9 9 Noroeste 26 Noroeste 0 -- -- 67
2019-04-17 11:00:00 19.7 17 Norte 32 Noroeste 0 -- -- 76
2019-04-17 10:00:00 18.1 19 Norte 31 Norte 0 -- -- 85
2019-04-17 09:00:00 17.7 21 Norte 31 Norte 0 -- -- 82
2019-04-17 08:00:00 17.1 19 Norte 32 Norte 0 -- -- 81
2019-04-17 07:00:00 16.8 20 Norte 32 Noroeste 0 -- -- 80
2019-04-17 06:00:00 17 22 Norte 38 Norte 0 -- -- 80
2019-04-17 05:00:00 17.1 19 Norte 32 Norte 0 -- -- 81
2019-04-17 04:00:00 17 19 Norte 41 Norte 0 -- -- 77
2019-04-17 03:00:00 17.1 20 Norte 40 Norte 0 -- -- 76
2019-04-17 02:00:00 17.1 20 Norte 37 Norte 0 -- -- 75
2019-04-17 01:00:00 16.9 14 Norte 33 Norte 0 -- -- 74
2019-04-17 00:00:00 17 13 Norte 28 Norte 0 -- -- 76
2019-04-16 23:00:00 17.3 17 Norte 42 Norte 0 -- -- 74
2019-04-16 22:00:00 17.8 28 Norte 43 Noroeste 0 -- -- 66
2019-04-16 21:00:00 18 24 Norte 37 Norte 0 -- -- 75
2019-04-16 20:00:00 18.8 20 Norte 35 Norte 0 -- -- 71
2019-04-16 19:00:00 21 13 Norte 33 Norte 0 -- -- 63
2019-04-16 18:00:00 23.2 14 Noroeste 27 Norte 0 -- -- 57
2019-04-16 17:00:00 24.1 12 Noroeste 22 Noroeste 0 -- -- 60
2019-04-16 16:00:00 25.3 11 Norte 23 Noroeste 0 -- -- 48
2019-04-16 15:00:00 24.9 14 Noroeste 19 Noroeste 0 -- -- 58
2019-04-16 14:00:00 23.3 9 Oeste 14 Oeste 0 -- -- 66
2019-04-16 13:00:00 22.4 8 Sur 17 Sur 0 -- -- 70
2019-04-16 12:00:00 20.9 10 Sur 17 Sur 0 -- -- 74
2019-04-16 11:00:00 20.3 7 Sur 12 Sur 0 -- -- 75
2019-04-16 10:00:00 19.2 5 Sur 8 Sur 0 -- -- 78
2019-04-16 09:00:00 15.8 3 Sudeste 10 Sudeste 0 -- -- 91
2019-04-16 08:00:00 13.8 5 Este 7 Este 0 -- -- 91
2019-04-16 07:00:00 14 3 Este 9 Este 0 -- -- 89
2019-04-16 06:00:00 14.4 5 Este 9 Este 0 -- -- 89
2019-04-16 05:00:00 13.8 0 Calma 6 Nordeste 0 -- -- 91
2019-04-16 04:00:00 14 0 Calma 4 Sudeste 0 -- -- 91
2019-04-16 03:00:00 14.1 3 Nordeste 6 Nordeste 0 -- -- 90
2019-04-16 02:00:00 14.7 3 Nordeste 7 Nordeste 0 -- -- 89
2019-04-16 01:00:00 15.1 4 Nordeste 6 Nordeste 0 -- -- 89
2019-04-16 00:00:00 15.8 4 Nordeste 8 Sudeste 0 -- -- 85
2019-04-15 23:00:00 16.8 5 Sudeste 9 Sudeste 0 -- -- 82
2019-04-15 22:00:00 17.6 5 Sudeste 13 Sudeste 0 -- -- 79
2019-04-15 21:00:00 18.9 7 Sudeste 10 Sudeste 0 -- -- 78
2019-04-15 20:00:00 20.4 3 Oeste 12 Noroeste 0 -- -- 74
2019-04-15 19:00:00 20.6 5 Noroeste 13 Noroeste 0 -- -- 74
2019-04-15 18:00:00 21 8 Noroeste 18 Noroeste 0 -- -- 71
2019-04-15 17:00:00 20.9 7 Noroeste 13 Noroeste 0 -- -- 69
2019-04-15 16:00:00 20.8 7 Oeste 12 Sudoeste 0 -- -- 69
2019-04-15 15:00:00 19.8 7 Sudoeste 13 Sur 0 -- -- 73
2019-04-15 14:00:00 19.5 6 Sur 17 Sur 0 -- -- 74
2019-04-15 13:00:00 20.2 9 Sur 18 Sur 0 -- -- 73
2019-04-15 12:00:00 21.5 8 Sur 16 Sur 0 -- -- 65
2019-04-15 11:00:00 20.1 9 Sur 15 Sur 0 -- -- 74
2019-04-15 10:00:00 18.5 5 Sur 9 Sur 0 -- -- 76
2019-04-15 09:00:00 16.1 4 Sudeste 10 Sudeste 0 -- -- 84
2019-04-15 08:00:00 14.9 6 Sudeste 10 Este 0 -- -- 87
2019-04-15 07:00:00 14.6 4 Sudeste 8 Este 0 -- -- 83
2019-04-15 06:00:00 14.5 6 Este 9 Este 0 -- -- 86
2019-04-15 05:00:00 14.3 4 Este 6 Este 0 -- -- 87
2019-04-15 04:00:00 14.1 3 Norte 7 Nordeste 0 -- -- 89
2019-04-15 03:00:00 14.8 3 Nordeste 10 Sudeste 0 -- -- 87
2019-04-15 02:00:00 15.5 7 Sudeste 9 Sudeste 0 -- -- 87
2019-04-15 01:00:00 16.3 4 Sudeste 14 Sudeste 0 -- -- 81
2019-04-15 00:00:00 17 8 Sudoeste 21 Norte 0 -- -- 78
2019-04-14 23:00:00 16.9 7 Sudeste 16 Sudeste 0 -- -- 79
2019-04-14 22:00:00 16.9 3 Sudeste 23 Norte 0 -- -- 74
2019-04-14 21:00:00 18 8 Norte 43 Noroeste 0 -- -- 68
2019-04-14 20:00:00 18.9 28 Norte 48 Noroeste 0 -- -- 67
2019-04-14 19:00:00 21.6 23 Norte 40 Norte 0 -- -- 60
2019-04-14 18:00:00 22.8 21 Norte 38 Noroeste 0 -- -- 48
2019-04-14 17:00:00 21.8 24 Norte 50 Norte 0 -- -- 60
2019-04-14 16:00:00 22.5 26 Norte 42 Norte 0 -- -- 61
2019-04-14 15:00:00 24.3 11 Norte 30 Norte 0 -- -- 53
2019-04-14 14:00:00 24.2 14 Noroeste 26 Noroeste 0 -- -- 57
2019-04-14 13:00:00 23.7 15 Noroeste 26 Norte 0 -- -- 59
2019-04-14 12:00:00 22.9 15 Noroeste 21 Noroeste 0 -- -- 62
2019-04-14 11:00:00 21.9 10 Noroeste 18 Noroeste 0 -- -- 67
2019-04-14 10:00:00 19.1 8 Norte 19 Norte 0 -- -- 74
2019-04-14 09:00:00 15.7 10 Norte 18 Norte 0 -- -- 89
2019-04-14 08:00:00 13.8 5 Nordeste 8 Nordeste 0 -- -- 95
2019-04-14 07:00:00 13.3 3 Nordeste 5 Nordeste 0 -- -- 94
2019-04-14 06:00:00 13.6 4 Nordeste 5 Nordeste 0 -- -- 93
2019-04-14 05:00:00 14 4 Nordeste 8 Nordeste 0 -- -- 93
2019-04-14 04:00:00 14 2 Nordeste 5 Sudeste 0 -- -- 91
2019-04-14 03:00:00 14.3 0 Calma 6 Nordeste 0 -- -- 89
2019-04-14 02:00:00 14.7 0 Calma 6 Sudeste 0 -- -- 87
2019-04-14 01:00:00 15.9 4 Sudeste 13 Sur 0 -- -- 84
2019-04-14 00:00:00 16 7 Sur 13 Sur 0 -- -- 88
2019-04-13 23:00:00 16 4 Noroeste 9 Noroeste 0 -- -- 84
2019-04-13 22:00:00 17.1 2 Sudeste 14 Sudeste 0 -- -- 80
2019-04-13 21:00:00 17.6 10 Sur 18 Sur 0 -- -- 78
2019-04-13 20:00:00 18.7 9 Sur 16 Sur 0 -- -- 74
2019-04-13 19:00:00 20.2 7 Sudoeste 14 Oeste 0 -- -- 67
2019-04-13 18:00:00 22.1 8 Oeste 14 Oeste 0 -- -- 61
2019-04-13 17:00:00 22.5 9 Sudoeste 17 Sudoeste 0 -- -- 59
2019-04-13 16:00:00 21.9 10 Sudoeste 19 Sur 0 -- -- 61
2019-04-13 15:00:00 21.6 10 Sudoeste 17 Sudoeste 0 -- -- 60
2019-04-13 14:00:00 21.9 9 Sudoeste 15 Sudoeste 0 -- -- 59
2019-04-13 13:00:00 21.1 9 Sudoeste 16 Sudoeste 0 -- -- 63
2019-04-13 12:00:00 20.8 7 Sudoeste 15 Sudoeste 0 -- -- 63
2019-04-13 11:00:00 20.3 7 Sudoeste 11 Oeste 0 -- -- 66
2019-04-13 10:00:00 18.1 3 Sudoeste 16 Sudeste 0 -- -- 74
2019-04-13 09:00:00 15.9 5 Sudeste 12 Este 0 -- -- 79
2019-04-13 08:00:00 14.2 6 Sudeste 13 Sudeste 0 -- -- 85
2019-04-13 07:00:00 13.7 4 Nordeste 10 Sudeste 0 -- -- 86
2019-04-13 06:00:00 14 4 Sudeste 10 Este 0 -- -- 85
2019-04-13 05:00:00 14.3 7 Este 10 Este 0 -- -- 84
2019-04-13 04:00:00 14.5 6 Este 10 Este 0 -- -- 83
2019-04-13 03:00:00 14.9 6 Este 12 Este 0 -- -- 81
2019-04-13 02:00:00 15.3 6 Sudeste 11 Este 0 -- -- 79
2019-04-13 01:00:00 15.3 6 Este 10 Sudeste 0 -- -- 77
2019-04-13 00:00:00 15.6 5 Sudeste 9 Sur 0 -- -- 76
2019-04-12 23:00:00 16.1 5 Sudeste 10 Sudeste 0 -- -- 75
2019-04-12 22:00:00 16.7 3 Sur 13 Oeste 0 -- -- 74
2019-04-12 21:00:00 17.4 3 Oeste 10 Sudoeste 0 -- -- 72
2019-04-12 20:00:00 18.5 6 Sur 15 Sur 0 -- -- 65
2019-04-12 19:00:00 19.5 11 Sur 18 Sur 0 -- -- 61
2019-04-12 18:00:00 20.7 9 Sur 22 Sudoeste 0 -- -- 60
2019-04-12 17:00:00 22.3 10 Sudoeste 18 Oeste 0 -- -- 56
2019-04-12 16:00:00 22.4 11 Sudoeste 19 Sur 0 -- -- 55
2019-04-12 15:00:00 21.4 10 Sudoeste 26 Sur 0 -- -- 56
2019-04-12 14:00:00 21.4 10 Sur 17 Sur 0 -- -- 54
2019-04-12 13:00:00 21.8 7 Sudoeste 16 Oeste 0 -- -- 56
2019-04-12 12:00:00 22.1 8 Oeste 14 Oeste 0 -- -- 52
2019-04-12 11:00:00 19.9 6 Sur 10 Sudoeste 0 -- -- 56
2019-04-12 10:00:00 18.7 4 Sur 10 Sur 0 -- -- 61
2019-04-12 09:00:00 15.3 3 Sudeste 12 Sudeste 0 -- -- 73
2019-04-12 08:00:00 14.6 6 Sudeste 18 Sudeste 0 -- -- 73
2019-04-12 07:00:00 14.1 9 Este 15 Este 0 -- -- 74
2019-04-12 06:00:00 14.3 7 Oeste 16 Sur 0 -- -- 71
2019-04-12 05:00:00 14.5 8 Nordeste 16 Este 0 -- -- 74
2019-04-12 04:00:00 14.5 4 Nordeste 16 Sudeste 0 -- -- 77
2019-04-12 03:00:00 15.6 11 Sudeste 20 Sudeste 0 -- -- 74
2019-04-12 02:00:00 14.9 6 Norte 13 Sudeste 0 -- -- 78
2019-04-12 01:00:00 16.1 6 Sudeste 33 Norte 0 -- -- 74
2019-04-12 00:00:00 16.2 4 Nordeste 12 Sudeste 0 -- -- 74
2019-04-11 23:00:00 16.7 5 Sudeste 19 Norte 0 -- -- 71
2019-04-11 22:00:00 16.8 5 Este 14 Sur 0 -- -- 66
2019-04-11 21:00:00 17.5 0 Calma 8 Sur 0 -- -- 66
2019-04-11 20:00:00 18.7 4 Sudoeste 21 Oeste 0 -- -- 62
2019-04-11 19:00:00 19.8 9 Sudoeste 17 Sur 0 -- -- 60
2019-04-11 18:00:00 20.9 9 Sur 18 Sur 0 -- -- 54
2019-04-11 17:00:00 21.4 12 Sur 18 Sur 0 -- -- 55
2019-04-11 16:00:00 22.1 9 Sur 15 Sudoeste 0 -- -- 52
2019-04-11 15:00:00 22.3 6 Sudoeste 17 Oeste 0 -- -- 50
2019-04-11 14:00:00 23.6 10 Oeste 19 Oeste 0 -- -- 51
2019-04-11 13:00:00 21.7 7 Sudoeste 14 Oeste 0 -- -- 57
2019-04-11 12:00:00 20.7 7 Sudoeste 11 Oeste 0 -- -- 59
2019-04-11 11:00:00 19.6 6 Sudoeste 10 Sudoeste 0 -- -- 63
2019-04-11 10:00:00 18.4 3 Sur 6 Sur 0 -- -- 65
2019-04-11 09:00:00 14.6 3 Este 8 Este 0 -- -- 82
2019-04-11 08:00:00 12.9 5 Este 9 Este 0 -- -- 85
2019-04-11 07:00:00 13.3 6 Este 8 Este 0 -- -- 79
2019-04-11 06:00:00 13.2 6 Sudeste 8 Este 0 -- -- 81
2019-04-11 05:00:00 13.4 5 Sudeste 6 Sudeste 0 -- -- 79
2019-04-11 04:00:00 13.7 6 Este 9 Este 0 -- -- 73
2019-04-11 03:00:00 13.8 4 Este 7 Este 0 -- -- 75
2019-04-11 02:00:00 14 0 Calma 5 Nordeste 0 -- -- 79
2019-04-11 01:00:00 15.1 5 Este 11 Sudeste 0 -- -- 72
2019-04-11 00:00:00 15.7 5 Sudeste 12 Sudeste 0 -- -- 72
2019-04-10 23:00:00 16.4 2 Sur 10 Sudoeste 0 -- -- 71
2019-04-10 22:00:00 16.5 2 Norte 9 Sur 0 -- -- 71
2019-04-10 21:00:00 17.5 4 Sur 13 Sur 0 -- -- 66
2019-04-10 20:00:00 18.6 5 Sur 18 Sudoeste 0 -- -- 62
2019-04-10 19:00:00 19.9 8 Sudoeste 19 Sur 0 -- -- 60
2019-04-10 18:00:00 20.9 10 Sur 24 Sur 0 -- -- 58
2019-04-10 17:00:00 21.6 13 Sur 20 Sur 0 -- -- 55
2019-04-10 16:00:00 22.2 13 Sur 20 Sur 0 -- -- 55
2019-04-10 15:00:00 21.2 9 Sudoeste 19 Oeste 0 -- -- 57
2019-04-10 14:00:00 21.5 8 Sudoeste 17 Sudoeste 0 -- -- 54
2019-04-10 13:00:00 22 9 Sudoeste 15 Sudoeste 0 -- -- 55
2019-04-10 12:00:00 21.5 6 Sur 11 Sudoeste 0 -- -- 57
2019-04-10 11:00:00 20.5 6 Sudoeste 10 Oeste 0 -- -- 60
2019-04-10 10:00:00 19.2 4 Sudoeste 8 Sudoeste 0 -- -- 65
2019-04-10 09:00:00 15.9 4 Este 15 Este 0 -- -- 74
2019-04-10 08:00:00 14.9 5 Este 15 Este 0 -- -- 73
2019-04-10 07:00:00 15.6 7 Este 18 Este 0 -- -- 67
2019-04-10 06:00:00 16 9 Este 21 Este 0 -- -- 66
2019-04-10 05:00:00 15.4 6 Este 22 Este 0 -- -- 73
2019-04-10 04:00:00 14.7 5 Este 11 Este 0 -- -- 81
2019-04-10 03:00:00 15.2 8 Sudeste 12 Sudeste 0 -- -- 89
2019-04-10 02:00:00 15.1 0 Calma 7 Este 0 -- -- 87
2019-04-10 01:00:00 16 4 Este 11 Sudeste 0 -- -- 88
2019-04-10 00:00:00 15.3 2 Sudeste 4 Sudeste 0 -- -- 86
2019-04-09 23:00:00 15.8 0 Calma 6 Sudeste 0 -- -- 82
2019-04-09 22:00:00 16.9 3 Sudeste 8 Sur 0 -- -- 78
2019-04-09 21:00:00 17.7 0 Calma 8 Oeste 0 -- -- 73
2019-04-09 20:00:00 18.9 5 Sudoeste 10 Sur 0 -- -- 68
2019-04-09 19:00:00 20.3 6 Sudoeste 16 Sur 0 -- -- 63
2019-04-09 18:00:00 20.3 8 Sur 17 Sur 0 -- -- 61
2019-04-09 17:00:00 21 10 Sur 16 Sudoeste 0 -- -- 63
2019-04-09 16:00:00 21.6 9 Sur 15 Sur 0 -- -- 62
2019-04-09 15:00:00 21.5 8 Sur 13 Oeste 0 -- -- 52
2019-04-09 14:00:00 23.2 9 Oeste 16 Oeste 0 -- -- 56
2019-04-09 13:00:00 23.3 9 Oeste 16 Oeste 0 -- -- 51
2019-04-09 12:00:00 21.6 8 Oeste 14 Oeste 0 -- -- 54
2019-04-09 11:00:00 19.9 6 Sur 12 Sur 0 -- -- 60
2019-04-09 10:00:00 19 5 Sudoeste 8 Este 0 -- -- 60
2019-04-09 09:00:00 15.2 6 Este 10 Este 0 -- -- 71
2019-04-09 08:00:00 13.9 8 Este 11 Este 0 -- -- 73
2019-04-09 07:00:00 13.6 3 Este 9 Este 0 -- -- 77
2019-04-09 06:00:00 13.8 6 Nordeste 10 Nordeste 0 -- -- 77
2019-04-09 05:00:00 13.9 6 Este 9 Este 0 -- -- 76
2019-04-09 04:00:00 13.5 4 Este 6 Nordeste 0 -- -- 80
2019-04-09 03:00:00 14.5 4 Nordeste 8 Nordeste 0 -- -- 74
2019-04-09 02:00:00 14.2 4 Nordeste 6 Este 0 -- -- 78
2019-04-09 01:00:00 14.7 3 Este 7 Este 0 -- -- 75
2019-04-09 00:00:00 15.1 0 Calma 4 Este 0 -- -- 76
2019-04-08 23:00:00 16.2 2 Noroeste 6 Noroeste 0 -- -- 71
2019-04-08 22:00:00 17.1 0 Calma 7 Noroeste 0 -- -- 66
2019-04-08 21:00:00 18.1 4 Sudeste 13 Sudeste 0 -- -- 69
2019-04-08 20:00:00 18.9 5 Sur 16 Sudoeste 0 -- -- 65
2019-04-08 19:00:00 20.1 10 Sur 18 Sur 0 -- -- 60
2019-04-08 18:00:00 21.2 8 Sudoeste 13 Sur 0 -- -- 56
2019-04-08 17:00:00 20.4 7 Sudoeste 15 Oeste 0 -- -- 59
2019-04-08 16:00:00 20.9 8 Sudoeste 15 Sudoeste 0 -- -- 56
2019-04-08 15:00:00 22.7 9 Oeste 17 Oeste 0 -- -- 55
2019-04-08 14:00:00 21.9 10 Sudoeste 15 Sudoeste 0 -- -- 56
2019-04-08 13:00:00 21.2 9 Sudoeste 18 Sur 0 -- -- 58
2019-04-08 12:00:00 20.6 9 Sur 15 Sudoeste 0 -- -- 63
2019-04-08 11:00:00 19.8 6 Sur 9 Sudoeste 0 -- -- 62
2019-04-08 10:00:00 18.5 4 Sudoeste 6 Sudoeste 0 -- -- 65
2019-04-08 09:00:00 13.8 3 Este 5 Este 0 -- -- 89
2019-04-08 08:00:00 12.5 2 Nordeste 9 Nordeste 0 -- -- 86
2019-04-08 07:00:00 12.8 2 Nordeste 9 Este 0 -- -- 84
2019-04-08 06:00:00 13.8 5 Sudeste 10 Sudeste 0 -- -- 83
2019-04-08 05:00:00 13.5 2 Sudeste 8 Este 0 -- -- 86
2019-04-08 04:00:00 14.2 5 Sudeste 9 Noroeste 0 -- -- 85
2019-04-08 03:00:00 14.4 3 Noroeste 10 Oeste 0 -- -- 84
2019-04-08 02:00:00 13.9 3 Norte 6 Este 0 -- -- 85
2019-04-08 01:00:00 14.9 4 Sudeste 8 Sudeste 0 -- -- 82
2019-04-08 00:00:00 15.4 3 Este 7 Sudeste 0 -- -- 80
2019-04-07 23:00:00 15.8 2 Sudeste 4 Sudeste 0 -- -- 78
2019-04-07 22:00:00 16.9 3 Sur 12 Sur 0 -- -- 73
2019-04-07 21:00:00 17.7 2 Oeste 18 Oeste 0 -- -- 68
2019-04-07 20:00:00 19.7 6 Sudoeste 14 Noroeste 0 -- -- 58
2019-04-07 19:00:00 21.6 7 Oeste 21 Norte 0 -- -- 53
2019-04-07 18:00:00 23 12 Noroeste 26 Norte 0 -- -- 49
2019-04-07 17:00:00 23 15 Norte 32 Norte 0 -- -- 46
2019-04-07 16:00:00 24.1 15 Noroeste 26 Noroeste 0 -- -- 44
2019-04-07 15:00:00 24 13 Noroeste 21 Noroeste 0 -- -- 45
2019-04-07 14:00:00 23 9 Oeste 15 Oeste 0 -- -- 48
2019-04-07 13:00:00 23.5 8 Oeste 15 Oeste 0 -- -- 47
2019-04-07 12:00:00 22.8 8 Oeste 14 Oeste 0 -- -- 50
2019-04-07 11:00:00 21.6 7 Noroeste 10 Noroeste 0 -- -- 53
2019-04-07 10:00:00 19.7 4 Noroeste 8 Oeste 0 -- -- 56
2019-04-07 09:00:00 15.7 2 Nordeste 6 Nordeste 0 -- -- 71
2019-04-07 08:00:00 12.8 5 Nordeste 6 Nordeste 0 -- -- 83
2019-04-07 07:00:00 12.6 3 Este 5 Nordeste 0 -- -- 81
2019-04-07 06:00:00 13.5 4 Nordeste 10 Nordeste 0 -- -- 76
2019-04-07 05:00:00 13.9 5 Nordeste 10 Nordeste 0 -- -- 76
2019-04-07 04:00:00 13.9 4 Este 8 Este 0 -- -- 79
2019-04-07 03:00:00 14.2 6 Este 8 Este 0 -- -- 79
2019-04-07 02:00:00 14.3 5 Sudeste 8 Sudeste 0 -- -- 79
2019-04-07 01:00:00 14.4 3 Este 4 Este 0 -- -- 78
2019-04-07 00:00:00 15.4 0 Calma 6 Norte 0 -- -- 73
2019-04-06 23:00:00 16.5 4 Sur 15 Sur 0 -- -- 69
2019-04-06 22:00:00 16.8 5 Sudeste 12 Sur 0 -- -- 65
2019-04-06 21:00:00 17.4 8 Sudeste 15 Sur 0 -- -- 62
2019-04-06 20:00:00 18.3 6 Sur 19 Sudeste 0 -- -- 59
2019-04-06 19:00:00 19.4 8 Sur 18 Sur 0 -- -- 57
2019-04-06 18:00:00 20.5 12 Sur 23 Sudeste 0 -- -- 54
2019-04-06 17:00:00 21.8 12 Sur 22 Sur 0 -- -- 46
2019-04-06 16:00:00 22 10 Sur 18 Sur 0 -- -- 46
2019-04-06 15:00:00 21.8 12 Sur 20 Sur 0 -- -- 46
2019-04-06 14:00:00 22.6 12 Oeste 28 Noroeste 0 -- -- 45
2019-04-06 13:00:00 21.5 7 Sur 30 Nordeste 0 -- -- 44
2019-04-06 12:00:00 20.8 13 Este 30 Nordeste 0 -- -- 46
2019-04-06 11:00:00 19.1 16 Nordeste 37 Nordeste 0 -- -- 50
2019-04-06 10:00:00 18 15 Nordeste 33 Nordeste 0 -- -- 54
2019-04-06 09:00:00 15.5 15 Norte 30 Norte 0 -- -- 61
2019-04-06 08:00:00 15 14 Norte 27 Nordeste 0 -- -- 64
2019-04-06 07:00:00 14.8 11 Nordeste 37 Norte 0 -- -- 56
2019-04-06 06:00:00 15.3 18 Nordeste 42 Nordeste 0 -- -- 57
2019-04-06 05:00:00 15.4 21 Nordeste 38 Norte 0 -- -- 59
2019-04-06 04:00:00 15.9 9 Nordeste 33 Nordeste 0 -- -- 63
2019-04-06 03:00:00 15.8 19 Norte 34 Norte 0 -- -- 63
2019-04-06 02:00:00 15.7 12 Norte 48 Norte 0 -- -- 62
2019-04-06 01:00:00 16.1 17 Nordeste 34 Norte 0 -- -- 64
2019-04-06 00:00:00 16 10 Norte 33 Nordeste 0 -- -- 61
2019-04-05 23:00:00 16.1 15 Norte 43 Norte 0 -- -- 65
2019-04-05 22:00:00 16.6 14 Nordeste 35 Nordeste 0 -- -- 62
2019-04-05 21:00:00 16.9 17 Norte 39 Nordeste 0 -- -- 61
2019-04-05 20:00:00 17.3 15 Nordeste 37 Nordeste 0 -- -- 59
2019-04-05 19:00:00 19.3 16 Nordeste 40 Nordeste 0 -- -- 55
2019-04-05 18:00:00 20.1 18 Norte 40 Nordeste 0 -- -- 55
2019-04-05 17:00:00 22.4 21 Nordeste 36 Nordeste 0 -- -- 48
2019-04-05 16:00:00 22.6 14 Norte 36 Norte 0 -- -- 52
2019-04-05 15:00:00 22.9 11 Nordeste 39 Norte 0 -- -- 43
2019-04-05 14:00:00 20.7 14 Norte 33 Noroeste 0 -- -- 51
2019-04-05 13:00:00 21.4 12 Noroeste 30 Norte 0 -- -- 53
2019-04-05 12:00:00 20.9 9 Norte 30 Noroeste 0 -- -- 53
2019-04-05 11:00:00 19.7 5 Norte 24 Nordeste 0 -- -- 53
2019-04-05 10:00:00 18.7 5 Norte 22 Este 0 -- -- 57
2019-04-05 09:00:00 15.5 9 Nordeste 23 Norte 0 -- -- 62
2019-04-05 08:00:00 14.9 10 Nordeste 26 Este 0 -- -- 66
2019-04-05 07:00:00 15.3 13 Nordeste 30 Nordeste 0 -- -- 64
2019-04-05 06:00:00 15 9 Nordeste 36 Norte 0 -- -- 63
2019-04-05 05:00:00 14.5 5 Sudeste 13 Este 0 -- -- 69
2019-04-05 04:00:00 14.8 4 Nordeste 27 Norte 0 -- -- 68
2019-04-05 03:00:00 15.6 21 Nordeste 42 Nordeste 0 -- -- 62
2019-04-05 02:00:00 15.8 10 Norte 30 Nordeste 0 -- -- 66
2019-04-05 01:00:00 16 13 Nordeste 32 Nordeste 0 -- -- 64
2019-04-05 00:00:00 16.3 13 Nordeste 32 Norte 0 -- -- 63
2019-04-04 23:00:00 16.3 13 Nordeste 27 Nordeste 0 -- -- 62
2019-04-04 22:00:00 16.9 11 Nordeste 26 Nordeste 0 -- -- 62
2019-04-04 21:00:00 17.1 14 Nordeste 33 Nordeste 0 -- -- 61
2019-04-04 20:00:00 18.5 17 Nordeste 32 Nordeste 0 -- -- 56
2019-04-04 19:00:00 20.2 14 Nordeste 28 Nordeste 0 -- -- 51
2019-04-04 18:00:00 22.1 14 Nordeste 30 Norte 0 -- -- 44
2019-04-04 17:00:00 23.1 9 Nordeste 37 Este 0 -- -- 43
2019-04-04 16:00:00 22.6 14 Nordeste 44 Nordeste 0 -- -- 46
2019-04-04 15:00:00 22.8 17 Nordeste 38 Nordeste 0 -- -- 46
2019-04-04 14:00:00 22.3 15 Nordeste 45 Nordeste 0 -- -- 47
2019-04-04 13:00:00 20.8 15 Este 34 Este 0 -- -- 52
2019-04-04 12:00:00 18.9 15 Nordeste 39 Nordeste 0 -- -- 61
2019-04-04 11:00:00 17.3 17 Nordeste 37 Este 0 -- -- 68
2019-04-04 10:00:00 16.4 18 Este 40 Este 0 -- -- 65
2019-04-04 09:00:00 15.1 6 Nordeste 37 Norte 0 -- -- 73
2019-04-04 08:00:00 14.5 11 Norte 32 Norte 0 -- -- 78
2019-04-04 07:00:00 14.1 9 Norte 25 Noroeste 0.2 -- -- 86
2019-04-04 06:00:00 14.1 9 Norte 27 Norte 0 -- -- 84
2019-04-04 05:00:00 13.2 5 Nordeste 10 Nordeste 0 -- -- 86
2019-04-04 04:00:00 13.8 5 Nordeste 13 Nordeste 0.2 -- -- 82
2019-04-04 03:00:00 14.6 6 Nordeste 20 Noroeste 0.2 -- -- 81
2019-04-04 02:00:00 15 8 Norte 25 Norte 0 -- -- 73
2019-04-04 01:00:00 15.3 12 Norte 30 Norte 0 -- -- 77
2019-04-04 00:00:00 15.5 17 Norte 31 Norte 0 -- -- 75
2019-04-03 23:00:00 15.9 21 Norte 39 Norte 0 -- -- 81
2019-04-03 22:00:00 16.1 15 Norte 33 Norte 0 -- -- 76
2019-04-03 21:00:00 16.4 19 Norte 34 Noroeste 0 -- -- 72
2019-04-03 20:00:00 17.6 16 Noroeste 32 Noroeste 0 -- -- 65
2019-04-03 19:00:00 19.2 21 Noroeste 35 Norte 0 -- -- 62
2019-04-03 18:00:00 20.3 20 Noroeste 44 Noroeste 0 -- -- 62
2019-04-03 17:00:00 21 15 Noroeste 37 Noroeste 0 -- -- 59
2019-04-03 16:00:00 21.6 18 Noroeste 33 Noroeste 0 -- -- 60
2019-04-03 15:00:00 21.6 18 Noroeste 39 Noroeste 0 -- -- 58
2019-04-03 14:00:00 21.4 21 Norte 38 Noroeste 0 -- -- 55
2019-04-03 13:00:00 21.9 15 Noroeste 23 Noroeste 0 -- -- 61
2019-04-03 12:00:00 19.6 12 Norte 35 Norte 0 -- -- 67
2019-04-03 11:00:00 18.3 16 Noroeste 26 Norte 0 -- -- 66
2019-04-03 10:00:00 16.3 14 Norte 30 Oeste 0 -- -- 71
2019-04-03 09:00:00 14.4 6 Nordeste 14 Nordeste 0 -- -- 70
2019-04-03 08:00:00 13 7 Nordeste 12 Nordeste 0 -- -- 77
2019-04-03 07:00:00 13.1 8 Nordeste 13 Nordeste 0 -- -- 80
2019-04-03 06:00:00 12.4 5 Nordeste 8 Nordeste 0 -- -- 91
2019-04-03 05:00:00 13.1 5 Este 10 Este 0 -- -- 87
2019-04-03 04:00:00 14 7 Este 10 Este 0 -- -- 85
2019-04-03 03:00:00 14.5 6 Nordeste 10 Este 0 -- -- 86
2019-04-03 02:00:00 14.2 6 Nordeste 8 Este 0 -- -- 94
2019-04-03 01:00:00 14.5 5 Este 10 Sudeste 0 -- -- 92
2019-04-03 00:00:00 14.7 6 Sudeste 10 Sudeste 0 -- -- 90
2019-04-02 23:00:00 15 3 Este 6 Este 0 -- -- 89
2019-04-02 22:00:00 15.9 3 Sudeste 10 Sur 0 -- -- 87
2019-04-02 21:00:00 16.5 6 Sur 19 Sur 0 -- -- 86
2019-04-02 20:00:00 17.7 3 Oeste 23 Norte 0 -- -- 81
2019-04-02 19:00:00 18.2 4 Sur 10 Sudoeste 0 -- -- 78
2019-04-02 18:00:00 17.8 5 Sudoeste 13 Sur 0 -- -- 83
2019-04-02 17:00:00 17.8 9 Sur 16 Sur 0 -- -- 80
2019-04-02 16:00:00 20.6 5 Norte 18 Sudeste 0 -- -- 71
2019-04-02 15:00:00 19.8 6 Noroeste 14 Noroeste 0 -- -- 78
2019-04-02 14:00:00 17.6 6 Sur 11 Sur 0 -- -- 80
2019-04-02 13:00:00 18.2 4 Sur 9 Sudoeste 0 -- -- 76
2019-04-02 12:00:00 16.6 3 Norte 9 Noroeste 0 -- -- 86
2019-04-02 11:00:00 15.6 2 Sur 6 Este 0.8 -- -- 93
2019-04-02 10:00:00 15.2 4 Norte 11 Sur 0 -- -- 92
2019-04-02 09:00:00 14.8 7 Sudeste 12 Sudeste 0.2 -- -- 88
2019-04-02 08:00:00 14.5 0 Calma 8 Norte 0 -- -- 93
2019-04-02 07:00:00 14.5 7 Norte 15 Sudeste 1 -- -- 93
2019-04-02 06:00:00 14.7 6 Norte 18 Norte 0 -- -- 87
2019-04-02 05:00:00 15.1 12 Norte 21 Noroeste 0 -- -- 83
2019-04-02 04:00:00 15.8 6 Sudeste 14 Sudeste 0 -- -- 79
2019-04-02 03:00:00 15 8 Sudeste 13 Sudeste 0 -- -- 80
2019-04-02 02:00:00 14.4 5 Sudeste 7 Sudeste 0 -- -- 86
2019-04-02 01:00:00 15.4 3 Nordeste 6 Sur 0 -- -- 89
2019-04-02 00:00:00 16 5 Sudeste 8 Sudeste 0 -- -- 85
2019-04-01 23:00:00 16 4 Sudeste 8 Este 0 -- -- 85
2019-04-01 22:00:00 16.3 6 Este 8 Este 0 -- -- 88
2019-04-01 21:00:00 16.6 0 Calma 8 Sudoeste 0 -- -- 90
2019-04-01 20:00:00 16.5 6 Noroeste 12 Oeste 1.4 -- -- 91
2019-04-01 19:00:00 16.3 6 Sur 25 Sur 7.2 -- -- 88
2019-04-01 18:00:00 17.5 15 Sur 26 Sur 0.4 -- -- 82
2019-04-01 17:00:00 18.4 14 Sur 31 Sur 0.2 -- -- 80
2019-04-01 16:00:00 21.6 18 Sur 34 Sur 0 -- -- 65
2019-04-01 15:00:00 21.3 18 Sur 36 Sur 0 -- -- 62
2019-04-01 14:00:00 20.5 14 Sur 25 Sur 0 -- -- 66
2019-04-01 13:00:00 19.9 16 Sur 28 Sur 0 -- -- 66
2019-04-01 12:00:00 20.4 10 Sur 20 Sur 0 -- -- 62
2019-04-01 11:00:00 19.7 9 Sur 16 Sur 0 -- -- 63
2019-04-01 10:00:00 17.8 3 Sudoeste 6 Sur 0 -- -- 70
2019-04-01 09:00:00 15.3 3 Este 9 Este 0 -- -- 77
2019-04-01 08:00:00 14.2 7 Este 9 Este 0 -- -- 79
2019-04-01 07:00:00 13.4 5 Este 8 Este 0 -- -- 80
2019-04-01 06:00:00 13.3 3 Nordeste 9 Este 0 -- -- 82
2019-04-01 05:00:00 13.8 5 Este 6 Nordeste 0 -- -- 82
2019-04-01 04:00:00 13.9 4 Este 6 Este 0 -- -- 78
2019-04-01 03:00:00 14.1 4 Este 6 Sudeste 0 -- -- 82
2019-04-01 02:00:00 14.4 0 Calma 5 Sudeste 0 -- -- 83
2019-04-01 01:00:00 15.1 0 Calma 8 Este 0 -- -- 82
2019-04-01 00:00:00 15.5 0 Calma 7 Este 0 -- -- 79
2019-03-31 23:00:00 16.5 4 Este 8 Este 0 -- -- 74
2019-03-31 22:00:00 17.1 0 Calma 13 Noroeste 0 -- -- 69
2019-03-31 21:00:00 18 8 Sur 17 Sur 0 -- -- 72
2019-03-31 20:00:00 19.4 11 Norte 28 Noroeste 0 -- -- 60
2019-03-31 19:00:00 20.8 17 Noroeste 38 Noroeste 0 -- -- 55
2019-03-31 18:00:00 22.7 16 Noroeste 28 Norte 0 -- -- 52
2019-03-31 17:00:00 21.4 9 Sur 23 Sur 0 -- -- 61
2019-03-31 16:00:00 22.6 12 Sudoeste 28 Sur 0 -- -- 58
2019-03-31 15:00:00 26.1 15 Norte 34 Noroeste 0 -- -- 43
2019-03-31 14:00:00 24.3 17 Norte 27 Norte 0 -- -- 49
2019-03-31 13:00:00 21.6 10 Sur 20 Sur 0 -- -- 56
2019-03-31 12:00:00 21 10 Sur 23 Sur 0 -- -- 54
2019-03-31 11:00:00 21.4 6 Noroeste 15 Noroeste 0 -- -- 53
2019-03-31 10:00:00 19.4 3 Sudeste 18 Noroeste 0 -- -- 55
2019-03-31 09:00:00 16 8 Noroeste 22 Noroeste 0 -- -- 67
2019-03-31 08:00:00 15.4 13 Norte 28 Noroeste 0 -- -- 75
2019-03-31 07:00:00 15.5 18 Norte 32 Noroeste 0 -- -- 82
2019-03-31 06:00:00 14.6 9 Norte 18 Norte 0 -- -- 84
2019-03-31 05:00:00 14.4 7 Este 13 Norte 0 -- -- 73
2019-03-31 04:00:00 15 8 Nordeste 12 Norte 0 -- -- 76
2019-03-31 00:00:00 15.6 11 Norte 20 Norte 0 -- -- 63
2019-03-30 23:00:00 15.6 3 Norte 18 Norte 0 -- -- 69
2019-03-30 22:00:00 16.4 10 Norte 21 Norte 0 -- -- 63
2019-03-30 21:00:00 17 10 Norte 19 Norte 0 -- -- 53
2019-03-30 20:00:00 17.4 7 Norte 23 Nordeste 0 -- -- 50
2019-03-30 19:00:00 18.4 10 Norte 28 Norte 0 -- -- 54
2019-03-30 18:00:00 19.8 16 Norte 33 Norte 0 -- -- 52
2019-03-30 17:00:00 20.8 21 Norte 42 Noroeste 0 -- -- 51
2019-03-30 16:00:00 22.3 23 Norte 38 Norte 0 -- -- 47
2019-03-30 15:00:00 22.7 7 Sudoeste 19 Sudoeste 0 -- -- 46
2019-03-30 14:00:00 21.6 12 Sur 19 Sur 0 -- -- 54
2019-03-30 13:00:00 21.2 10 Sur 17 Sur 0 -- -- 53
2019-03-30 12:00:00 20.9 10 Sudeste 19 Sur 0 -- -- 52
2019-03-30 11:00:00 20.4 8 Sur 22 Sudeste 0 -- -- 58
2019-03-30 10:00:00 20.3 5 Este 19 Nordeste 0 -- -- 56
2019-03-30 09:00:00 17.6 7 Nordeste 18 Norte 0 -- -- 60
2019-03-30 08:00:00 15.3 6 Norte 15 Nordeste 0 -- -- 68
2019-03-30 07:00:00 15 5 Nordeste 19 Nordeste 0 -- -- 67
2019-03-30 06:00:00 14.7 7 Norte 18 Norte 0 -- -- 71
2019-03-30 05:00:00 14.8 9 Norte 24 Norte 0 -- -- 69
2019-03-30 04:00:00 14.8 12 Norte 23 Norte 0 -- -- 71
2019-03-30 03:00:00 13.7 5 Norte 16 Noroeste 0 -- -- 74
2019-03-30 02:00:00 13.6 5 Nordeste 9 Norte 0 -- -- 74
2019-03-30 01:00:00 13.9 5 Nordeste 11 Norte 0 -- -- 73
2019-03-30 00:00:00 14.9 6 Norte 14 Norte 0 -- -- 68
2019-03-29 23:00:00 14.6 5 Norte 9 Norte 0 -- -- 71
2019-03-29 22:00:00 15.4 2 Norte 7 Nordeste 0 -- -- 68
2019-03-29 21:00:00 16.8 9 Nordeste 18 Nordeste 0 -- -- 58
2019-03-29 20:00:00 17.3 7 Norte 19 Norte 0 -- -- 61
2019-03-29 19:00:00 18.2 10 Noroeste 27 Noroeste 0 -- -- 63
2019-03-29 18:00:00 19.2 13 Norte 25 Noroeste 0 -- -- 61
2019-03-29 17:00:00 21.5 14 Norte 33 Norte 0 -- -- 57
2019-03-29 16:00:00 22.9 14 Noroeste 27 Norte 0 -- -- 53
2019-03-29 15:00:00 23.6 14 Noroeste 22 Noroeste 0 -- -- 48
2019-03-29 14:00:00 23.1 13 Norte 23 Noroeste 0 -- -- 53
2019-03-29 13:00:00 23 13 Noroeste 23 Noroeste 0 -- -- 53
2019-03-29 12:00:00 22.6 13 Noroeste 22 Noroeste 0 -- -- 56
2019-03-29 11:00:00 21.6 12 Noroeste 21 Noroeste 0 -- -- 61
2019-03-29 10:00:00 20.5 8 Noroeste 15 Noroeste 0 -- -- 65
2019-03-29 09:00:00 17.7 4 Norte 18 Norte 0 -- -- 79
2019-03-29 08:00:00 14.6 9 Norte 15 Norte 0 -- -- 91
2019-03-29 07:00:00 13.9 5 Nordeste 9 Nordeste 0 -- -- 92
2019-03-29 06:00:00 14.4 4 Norte 8 Nordeste 0 -- -- 87
2019-03-29 05:00:00 15.1 4 Nordeste 18 Norte 0 -- -- 86
2019-03-29 04:00:00 15.3 5 Noroeste 18 Norte 0 -- -- 88
2019-03-29 03:00:00 15.5 6 Sudeste 21 Sur 0 -- -- 85
2019-03-29 02:00:00 14.7 2 Noroeste 8 Este 0 -- -- 89
2019-03-29 01:00:00 14.8 4 Este 8 Este 0 -- -- 89
2019-03-29 00:00:00 15 4 Nordeste 8 Nordeste 0 -- -- 88
2019-03-28 23:00:00 15.1 2 Norte 4 Este 0 -- -- 85
2019-03-28 22:00:00 16.2 0 Calma 5 Sudoeste 0 -- -- 83
2019-03-28 21:00:00 16.8 3 Oeste 7 Sur 0 -- -- 79
2019-03-28 20:00:00 17.3 2 Sur 9 Sudoeste 0 -- -- 76
2019-03-28 19:00:00 19 4 Oeste 13 Oeste 0 -- -- 69
2019-03-28 18:00:00 20.6 8 Noroeste 15 Oeste 0 -- -- 66
2019-03-28 17:00:00 20.3 7 Oeste 14 Oeste 0 -- -- 68
2019-03-28 16:00:00 19.4 5 Sudoeste 10 Sudoeste 0 -- -- 67
2019-03-28 15:00:00 17.9 3 Sudoeste 17 Este 0 -- -- 71
2019-03-28 14:00:00 17.6 6 Sudeste 13 Oeste 0.2 -- -- 85
2019-03-28 13:00:00 18.8 5 Oeste 15 Noroeste 0 -- -- 74
2019-03-28 12:00:00 18.2 10 Sur 21 Sur 0 -- -- 79
2019-03-28 11:00:00 18.2 10 Sur 19 Sur 0 -- -- 79
2019-03-28 10:00:00 17.7 8 Sur 13 Sudeste 0 -- -- 81
2019-03-28 09:00:00 16.8 2 Sudeste 12 Sur 0 -- -- 83
2019-03-28 08:00:00 15.4 4 Sudeste 6 Sudeste 0 -- -- 85
2019-03-28 07:00:00 14.7 7 Este 9 Este 0 -- -- 84
2019-03-28 06:00:00 14 4 Este 6 Nordeste 0 -- -- 90
2019-03-28 05:00:00 14.3 5 Nordeste 6 Nordeste 0 -- -- 87
2019-03-28 04:00:00 14.8 0 Calma 6 Sudeste 0 -- -- 86
2019-03-28 03:00:00 15.3 3 Este 8 Sudeste 0 -- -- 83
2019-03-28 02:00:00 15.4 5 Sudeste 8 Este 0 -- -- 81
2019-03-28 01:00:00 15.1 4 Este 6 Este 0 -- -- 85
2019-03-28 00:00:00 15.3 2 Este 6 Sudeste 0 -- -- 84
2019-03-27 23:00:00 15.9 0 Calma 6 Noroeste 0 -- -- 85
2019-03-27 22:00:00 16.3 4 Norte 8 Noroeste 0 -- -- 81
2019-03-27 21:00:00 17.2 3 Noroeste 15 Sur 0 -- -- 77
2019-03-27 20:00:00 17.9 8 Sur 15 Sudeste 0 -- -- 75
2019-03-27 19:00:00 18.7 5 Sudeste 20 Sur 0 -- -- 72
2019-03-27 18:00:00 19.9 10 Sur 18 Sur 0 -- -- 68
2019-03-27 17:00:00 21.5 8 Sur 16 Sudoeste 0 -- -- 64
2019-03-27 16:00:00 22.1 8 Sudoeste 16 Sudoeste 0 -- -- 61
2019-03-27 15:00:00 22.2 10 Sur 17 Sur 0 -- -- 60
2019-03-27 14:00:00 21.6 10 Sur 15 Sur 0 -- -- 61
2019-03-27 13:00:00 21.8 10 Sur 15 Sur 0 -- -- 61
2019-03-27 12:00:00 21.4 9 Sur 13 Sur 0 -- -- 62
2019-03-27 11:00:00 20.9 7 Sudoeste 11 Sur 0 -- -- 70
2019-03-27 10:00:00 19.9 5 Sur 10 Sudoeste 0 -- -- 73
2019-03-27 09:00:00 17.9 3 Sur 8 Sudoeste 0 -- -- 79
2019-03-27 08:00:00 14.4 3 Este 7 Este 0 -- -- 87
2019-03-27 07:00:00 14 4 Nordeste 7 Este 0 -- -- 89
2019-03-27 06:00:00 14.8 6 Este 13 Este 0 -- -- 89
2019-03-27 05:00:00 14.6 5 Este 10 Este 0 -- -- 89
2019-03-27 04:00:00 14.6 5 Sudeste 9 Este 0 -- -- 86
2019-03-27 03:00:00 14.6 4 Nordeste 9 Nordeste 0 -- -- 86
2019-03-27 02:00:00 15.4 8 Este 12 Este 0 -- -- 84
2019-03-27 01:00:00 15 4 Sudeste 8 Sudeste 0 -- -- 87
2019-03-27 00:00:00 15.4 2 Sudeste 10 Este 0 -- -- 87
2019-03-26 23:00:00 16 5 Sudeste 9 Sudeste 0 -- -- 86
2019-03-26 22:00:00 16.6 5 Sur 13 Norte 0 -- -- 80
2019-03-26 21:00:00 17.1 5 Nordeste 20 Nordeste 0 -- -- 70
2019-03-26 20:00:00 17.3 4 Sudeste 15 Este 0 -- -- 80
2019-03-26 19:00:00 18.3 5 Sur 14 Oeste 0 -- -- 76
2019-03-26 18:00:00 19.4 7 Sudeste 20 Sudeste 0 -- -- 72
2019-03-26 17:00:00 22.6 9 Norte 35 Norte 0 -- -- 61
2019-03-26 16:00:00 22.6 17 Norte 37 Norte 0 -- -- 61
2019-03-26 15:00:00 22.7 14 Noroeste 28 Noroeste 0 -- -- 66
2019-03-26 14:00:00 21 12 Noroeste 27 Noroeste 0 -- -- 68
2019-03-26 13:00:00 21.6 10 Noroeste 23 Noroeste 0 -- -- 66
2019-03-26 12:00:00 20.5 12 Noroeste 20 Noroeste 0 -- -- 68
2019-03-26 11:00:00 20.7 13 Norte 23 Noroeste 0 -- -- 72
2019-03-26 10:00:00 18.7 12 Norte 25 Norte 0 -- -- 72
2019-03-26 09:00:00 16.8 13 Norte 27 Norte 0 -- -- 75
2019-03-26 08:00:00 14.7 15 Norte 24 Norte 0 -- -- 82
2019-03-26 07:00:00 14.3 12 Norte 25 Noroeste 0 -- -- 81
2019-03-26 06:00:00 13.8 5 Nordeste 26 Noroeste 0 -- -- 77
2019-03-26 05:00:00 13.6 9 Norte 18 Norte 0 -- -- 78
2019-03-26 04:00:00 12.9 5 Norte 13 Norte 0 -- -- 79
2019-03-26 03:00:00 12.1 6 Norte 11 Nordeste 0 -- -- 88
2019-03-26 02:00:00 12 5 Nordeste 9 Nordeste 0 -- -- 90
2019-03-26 01:00:00 12.3 0 Calma 7 Este 0 -- -- 90
2019-03-26 00:00:00 13.1 5 Este 10 Este 0 -- -- 90
2019-03-25 23:00:00 13.3 4 Nordeste 9 Nordeste 0 -- -- 92
2019-03-25 22:00:00 13.8 2 Nordeste 6 Norte 0 -- -- 90
2019-03-25 21:00:00 14.6 5 Norte 10 Norte 0 -- -- 88
2019-03-25 20:00:00 15 3 Noroeste 10 Norte 0 -- -- 85
2019-03-25 19:00:00 16.2 6 Noroeste 12 Norte 0 -- -- 83
2019-03-25 18:00:00 16.8 4 Noroeste 8 Oeste 0 -- -- 83
2019-03-25 17:00:00 16.9 2 Oeste 8 Oeste 0 -- -- 80
2019-03-25 16:00:00 17.6 6 Oeste 13 Noroeste 0 -- -- 77
2019-03-25 15:00:00 16.4 2 Norte 18 Noroeste 0.2 -- -- 81
2019-03-25 14:00:00 15.5 12 Noroeste 22 Noroeste 0 -- -- 85
2019-03-25 13:00:00 16.6 7 Noroeste 16 Noroeste 0 -- -- 84
2019-03-25 12:00:00 16.7 6 Norte 26 Sudeste 0 -- -- 78
2019-03-25 11:00:00 15.1 15 Sudeste 31 Sudeste 0.2 -- -- 82
2019-03-25 10:00:00 14.1 8 Sudeste 24 Sudeste 1.6 -- -- 88
2019-03-25 09:00:00 13.8 3 Sudeste 21 Sudeste 3.8 -- -- 90
2019-03-25 08:00:00 14.2 13 Sudeste 21 Sur 0.2 -- -- 85
2019-03-25 07:00:00 13.7 3 Noroeste 20 Nordeste 3.8 -- -- 90
2019-03-25 06:00:00 13.9 15 Nordeste 28 Nordeste 7 -- -- 90
2019-03-25 05:00:00 15.9 6 Sudeste 12 Sudeste 0 -- -- 79
2019-03-25 04:00:00 16 6 Sur 12 Sur 0 -- -- 77
2019-03-25 03:00:00 15.6 5 Este 6 Este 0 -- -- 77
2019-03-25 02:00:00 15.5 0 Calma 6 Sudeste 0 -- -- 80
2019-03-25 01:00:00 15.4 0 Calma 6 Sudeste 0 -- -- 81
2019-03-25 00:00:00 15.6 3 Sudeste 9 Oeste 0 -- -- 78
2019-03-24 23:00:00 16 4 Sudoeste 10 Sudeste 0 -- -- 75
2019-03-24 22:00:00 16 4 Sudeste 10 Sudeste 0 -- -- 73
2019-03-24 21:00:00 16.5 5 Sur 9 Sur 0 -- -- 73
2019-03-24 20:00:00 17 5 Sur 13 Sudeste 0 -- -- 72
2019-03-24 19:00:00 17.4 5 Sur 15 Sur 0 -- -- 73
2019-03-24 18:00:00 18.5 9 Sur 18 Sur 0 -- -- 67
2019-03-24 17:00:00 19.8 10 Sur 22 Sur 0 -- -- 62
2019-03-24 16:00:00 20.1 7 Sudoeste 12 Sudoeste 0 -- -- 60
2019-03-24 15:00:00 20.2 8 Norte 14 Noroeste 0 -- -- 60
2019-03-24 14:00:00 20.5 8 Sudoeste 15 Sudeste 0 -- -- 60
2019-03-24 13:00:00 19.3 10 Sur 17 Sudeste 0 -- -- 61
2019-03-24 12:00:00 19 6 Sur 17 Sur 0 -- -- 61
2019-03-24 11:00:00 18.1 9 Sur 14 Sudeste 0 -- -- 65
2019-03-24 10:00:00 17.8 5 Sudoeste 8 Oeste 0 -- -- 65
2019-03-24 09:00:00 16.8 4 Sur 7 Sur 0 -- -- 68
2019-03-24 08:00:00 15.4 2 Sudeste 6 Este 0 -- -- 72
2019-03-24 07:00:00 14.9 6 Este 8 Este 0 -- -- 71
2019-03-24 06:00:00 14.1 4 Sudeste 6 Este 0 -- -- 76
2019-03-24 05:00:00 14.9 3 Sudeste 6 Este 0 -- -- 76
2019-03-24 04:00:00 15 5 Este 5 Este 0 -- -- 77
2019-03-24 03:00:00 14.8 2 Sudeste 5 Norte 0 -- -- 79
2019-03-24 02:00:00 15.4 2 Nordeste 4 Sudeste 0 -- -- 77
2019-03-24 01:00:00 15.8 2 Este 13 Sur 0 -- -- 75
2019-03-24 00:00:00 16.1 9 Sur 14 Sudeste 0 -- -- 73
2019-03-23 23:00:00 16.2 6 Sudeste 14 Sudeste 0 -- -- 71
2019-03-23 22:00:00 16.3 6 Sudeste 14 Sudeste 0 -- -- 71
2019-03-23 21:00:00 17 3 Sudeste 13 Sur 0 -- -- 66
2019-03-23 20:00:00 17.6 8 Sudeste 16 Sur 0 -- -- 62
2019-03-23 19:00:00 18.7 3 Sur 13 Sudoeste 0 -- -- 58
2019-03-23 18:00:00 20.4 9 Oeste 18 Oeste 0 -- -- 55
2019-03-23 17:00:00 21.5 10 Sudoeste 17 Sur 0 -- -- 55
2019-03-23 16:00:00 21.6 12 Sur 18 Sudoeste 0 -- -- 54
2019-03-23 15:00:00 22.7 9 Sur 18 Oeste 0 -- -- 54
2019-03-23 14:00:00 23.3 11 Oeste 17 Sudoeste 0 -- -- 53
2019-03-23 13:00:00 22.1 8 Sudoeste 17 Sur 0 -- -- 59
2019-03-23 12:00:00 22.1 9 Sur 13 Sur 0 -- -- 57
2019-03-23 11:00:00 21.3 6 Sudoeste 10 Oeste 0 -- -- 58
2019-03-23 10:00:00 19.5 5 Sur 14 Oeste 0 -- -- 70
2019-03-23 09:00:00 18.2 4 Oeste 8 Noroeste 0 -- -- 79
2019-03-23 08:00:00 14.1 2 Nordeste 7 Nordeste 0 -- -- 88
2019-03-23 07:00:00 14.6 4 Sudeste 18 Sur 0 -- -- 83
2019-03-23 06:00:00 14.1 8 Sudeste 11 Sudeste 0 -- -- 77
2019-03-23 05:00:00 13.9 3 Este 13 Sudeste 0 -- -- 83
2019-03-23 04:00:00 14 2 Sudeste 11 Sudeste 0 -- -- 83
2019-03-23 03:00:00 15.4 8 Sudeste 14 Sudeste 0 -- -- 78
2019-03-23 02:00:00 15.1 4 Sudeste 19 Norte 0 -- -- 68
2019-03-23 01:00:00 15.2 8 Este 15 Sudeste 0 -- -- 85
2019-03-23 00:00:00 15.9 4 Nordeste 10 Sudeste 0 -- -- 84
2019-03-22 23:00:00 16.1 5 Sur 11 Sudeste 0 -- -- 85
2019-03-22 22:00:00 16.3 4 Sur 10 Sudeste 0 -- -- 82
2019-03-22 21:00:00 16.4 4 Sudeste 9 Sur 0 -- -- 78
2019-03-22 20:00:00 16.9 5 Sur 10 Sur 0 -- -- 76
2019-03-22 19:00:00 18.3 4 Sur 9 Sur 0 -- -- 68
2019-03-22 18:00:00 19.4 6 Sur 14 Sur 0 -- -- 65
2019-03-22 17:00:00 20.5 9 Sur 17 Sur 0 -- -- 60
2019-03-22 16:00:00 21.4 9 Sur 16 Sudoeste 0 -- -- 58
2019-03-22 15:00:00 22.2 12 Sudoeste 18 Oeste 0 -- -- 57
2019-03-22 14:00:00 22 9 Sudoeste 15 Sur 0 -- -- 61
2019-03-22 13:00:00 18.8 5 Sur 12 Sudeste 0 -- -- 69
2019-03-22 12:00:00 18.9 6 Sur 13 Sur 0 -- -- 71
2019-03-22 11:00:00 20.6 8 Sudoeste 13 Sur 0 -- -- 67
2019-03-22 10:00:00 20.3 7 Sudoeste 11 Oeste 0 -- -- 71
2019-03-22 09:00:00 18.2 6 Sur 10 Sur 0 -- -- 77
2019-03-22 08:00:00 15 6 Este 14 Sudeste 0 -- -- 81
2019-03-22 07:00:00 15 7 Sudeste 17 Este 0 -- -- 77
2019-03-22 06:00:00 15.1 11 Sudeste 23 Sudeste 0 -- -- 68
2019-03-22 05:00:00 14.5 4 Sudeste 12 Sudeste 0 -- -- 79
2019-03-22 04:00:00 14.5 5 Nordeste 10 Sudeste 0 -- -- 86
2019-03-22 03:00:00 14.2 8 Sudeste 11 Sudeste 0 -- -- 87
2019-03-22 02:00:00 14.6 3 Nordeste 10 Sudeste 0 -- -- 87
2019-03-22 01:00:00 15.4 7 Sudeste 10 Sur 0 -- -- 93
2019-03-22 00:00:00 15.2 2 Nordeste 8 Este 0 -- -- 87
2019-03-21 23:00:00 16 0 Calma 7 Este 0 -- -- 86
2019-03-21 22:00:00 16.6 0 Calma 7 Sudeste 0 -- -- 84
2019-03-21 21:00:00 17.2 0 Calma 9 Sudeste 0 -- -- 83
2019-03-21 20:00:00 17.8 3 Sudoeste 10 Sur 0 -- -- 81
2019-03-21 19:00:00 18.9 5 Sur 13 Sur 0 -- -- 76
2019-03-21 18:00:00 20 8 Sur 16 Sudeste 0 -- -- 71
2019-03-21 17:00:00 20.8 9 Sur 24 Sur 0 -- -- 68
2019-03-21 16:00:00 21.8 12 Sur 28 Sur 0 -- -- 62
2019-03-21 15:00:00 22.6 15 Sur 25 Sur 0 -- -- 57
2019-03-21 14:00:00 22.6 7 Sudoeste 13 Sudoeste 0 -- -- 58
2019-03-21 13:00:00 22.3 9 Sur 19 Sudoeste 0 -- -- 58
2019-03-21 12:00:00 22 8 Sudoeste 18 Oeste 0 -- -- 61
2019-03-21 11:00:00 20 8 Sur 12 Sur 0 -- -- 71
2019-03-21 10:00:00 19.2 4 Oeste 7 Oeste 0 -- -- 67
2019-03-21 09:00:00 17.2 2 Este 7 Este 0 -- -- 75
2019-03-21 08:00:00 13.8 5 Sudeste 7 Este 0 -- -- 83
2019-03-21 07:00:00 13.6 4 Este 7 Nordeste 0 -- -- 81
2019-03-21 06:00:00 14 6 Nordeste 10 Norte 0 -- -- 76
2019-03-21 05:00:00 13.7 6 Norte 9 Norte 0 -- -- 80
2019-03-21 04:00:00 14.9 4 Este 12 Sudeste 0 -- -- 82
2019-03-21 03:00:00 14.2 6 Este 9 Sudeste 0 -- -- 86
2019-03-21 02:00:00 14.2 3 Nordeste 9 Nordeste 0 -- -- 86
2019-03-21 01:00:00 14.2 4 Nordeste 6 Nordeste 0 -- -- 89
2019-03-21 00:00:00 14.6 0 Calma 6 Sudeste 0 -- -- 85